sensor_id;sensor_type;location;lat;lon;timestamp;P1;durP1;ratioP1;P2;durP2;ratioP2
32872;SDS011;19224;52.462;16.898;2023-07-16T00:01:29;4.83;;;3.65;;
32872;SDS011;19224;52.462;16.898;2023-07-16T00:03:59;4.72;;;3.55;;
32872;SDS011;19224;52.462;16.898;2023-07-16T00:06:30;4.47;;;3.58;;
32872;SDS011;19224;52.462;16.898;2023-07-16T00:09:00;5.47;;;3.80;;
32872;SDS011;19224;52.462;16.898;2023-07-16T00:11:33;3.60;;;3.30;;
32872;SDS011;19224;52.462;16.898;2023-07-16T00:14:06;5.72;;;3.87;;
32872;SDS011;19224;52.462;16.898;2023-07-16T00:16:38;4.28;;;3.47;;
32872;SDS011;19224;52.462;16.898;2023-07-16T00:19:10;5.55;;;3.30;;
32872;SDS011;19224;52.462;16.898;2023-07-16T00:21:40;4.55;;;3.50;;
32872;SDS011;19224;52.462;16.898;2023-07-16T00:24:12;5.15;;;3.58;;
32872;SDS011;19224;52.462;16.898;2023-07-16T00:26:42;8.38;;;3.80;;
32872;SDS011;19224;52.462;16.898;2023-07-16T00:29:13;7.20;;;3.77;;
32872;SDS011;19224;52.462;16.898;2023-07-16T00:31:43;8.13;;;4.12;;
32872;SDS011;19224;52.462;16.898;2023-07-16T00:34:21;5.87;;;3.40;;
32872;SDS011;19224;52.462;16.898;2023-07-16T00:36:54;4.92;;;3.40;;
32872;SDS011;19224;52.462;16.898;2023-07-16T00:39:26;5.47;;;3.90;;
32872;SDS011;19224;52.462;16.898;2023-07-16T00:42:05;5.45;;;3.60;;
32872;SDS011;19224;52.462;16.898;2023-07-16T00:44:37;5.12;;;4.03;;
32872;SDS011;19224;52.462;16.898;2023-07-16T00:47:08;6.90;;;4.42;;
32872;SDS011;19224;52.462;16.898;2023-07-16T00:49:40;6.25;;;4.10;;
32872;SDS011;19224;52.462;16.898;2023-07-16T00:52:16;8.48;;;3.67;;
32872;SDS011;19224;52.462;16.898;2023-07-16T00:54:48;5.65;;;4.35;;
32872;SDS011;19224;52.462;16.898;2023-07-16T00:57:23;7.67;;;4.10;;
32872;SDS011;19224;52.462;16.898;2023-07-16T01:00:05;6.53;;;3.92;;
32872;SDS011;19224;52.462;16.898;2023-07-16T01:02:37;6.33;;;3.80;;
32872;SDS011;19224;52.462;16.898;2023-07-16T01:05:08;10.78;;;4.70;;
32872;SDS011;19224;52.462;16.898;2023-07-16T01:07:42;5.12;;;3.67;;
32872;SDS011;19224;52.462;16.898;2023-07-16T01:10:16;6.45;;;3.90;;
32872;SDS011;19224;52.462;16.898;2023-07-16T01:12:48;6.97;;;4.20;;
32872;SDS011;19224;52.462;16.898;2023-07-16T01:15:24;8.35;;;4.55;;
32872;SDS011;19224;52.462;16.898;2023-07-16T01:17:56;10.28;;;4.58;;
32872;SDS011;19224;52.462;16.898;2023-07-16T01:20:27;7.17;;;4.35;;
32872;SDS011;19224;52.462;16.898;2023-07-16T01:32:00;8.28;;;4.60;;
32872;SDS011;19224;52.462;16.898;2023-07-16T01:34:41;5.17;;;4.30;;
32872;SDS011;19224;52.462;16.898;2023-07-16T01:37:13;7.10;;;4.40;;
32872;SDS011;19224;52.462;16.898;2023-07-16T01:39:46;10.08;;;4.55;;
32872;SDS011;19224;52.462;16.898;2023-07-16T01:42:16;5.35;;;4.30;;
32872;SDS011;19224;52.462;16.898;2023-07-16T01:44:49;7.53;;;3.90;;
32872;SDS011;19224;52.462;16.898;2023-07-16T01:47:30;8.85;;;4.30;;
32872;SDS011;19224;52.462;16.898;2023-07-16T01:50:08;8.53;;;4.42;;
32872;SDS011;19224;52.462;16.898;2023-07-16T01:52:38;11.70;;;4.50;;
32872;SDS011;19224;52.462;16.898;2023-07-16T01:55:09;6.58;;;4.30;;
32872;SDS011;19224;52.462;16.898;2023-07-16T01:57:44;4.67;;;4.03;;
32872;SDS011;19224;52.462;16.898;2023-07-16T02:00:12;6.50;;;4.20;;
32872;SDS011;19224;52.462;16.898;2023-07-16T02:02:43;7.08;;;4.25;;
32872;SDS011;19224;52.462;16.898;2023-07-16T02:05:14;6.10;;;4.20;;
32872;SDS011;19224;52.462;16.898;2023-07-16T02:07:53;7.90;;;4.08;;
32872;SDS011;19224;52.462;16.898;2023-07-16T02:10:25;7.00;;;4.17;;
32872;SDS011;19224;52.462;16.898;2023-07-16T02:12:58;8.68;;;4.00;;
32872;SDS011;19224;52.462;16.898;2023-07-16T02:15:31;6.83;;;4.45;;
32872;SDS011;19224;52.462;16.898;2023-07-16T02:18:01;9.28;;;4.28;;
32872;SDS011;19224;52.462;16.898;2023-07-16T02:20:37;8.00;;;4.28;;
32872;SDS011;19224;52.462;16.898;2023-07-16T02:23:09;6.97;;;3.95;;
32872;SDS011;19224;52.462;16.898;2023-07-16T02:25:39;4.80;;;4.30;;
32872;SDS011;19224;52.462;16.898;2023-07-16T02:28:15;10.00;;;4.67;;
32872;SDS011;19224;52.462;16.898;2023-07-16T02:30:46;7.60;;;4.15;;
32872;SDS011;19224;52.462;16.898;2023-07-16T02:33:21;7.28;;;4.45;;
32872;SDS011;19224;52.462;16.898;2023-07-16T02:35:55;6.10;;;4.20;;
32872;SDS011;19224;52.462;16.898;2023-07-16T02:38:26;4.83;;;4.10;;
32872;SDS011;19224;52.462;16.898;2023-07-16T02:41:05;6.90;;;4.47;;
32872;SDS011;19224;52.462;16.898;2023-07-16T02:43:36;6.05;;;4.80;;
32872;SDS011;19224;52.462;16.898;2023-07-16T02:46:06;5.05;;;4.00;;
32872;SDS011;19224;52.462;16.898;2023-07-16T02:48:36;7.85;;;4.53;;
32872;SDS011;19224;52.462;16.898;2023-07-16T02:51:12;6.45;;;4.10;;
32872;SDS011;19224;52.462;16.898;2023-07-16T02:53:42;7.12;;;4.58;;
32872;SDS011;19224;52.462;16.898;2023-07-16T02:56:17;8.50;;;4.42;;
32872;SDS011;19224;52.462;16.898;2023-07-16T02:58:50;6.60;;;3.77;;
32872;SDS011;19224;52.462;16.898;2023-07-16T03:01:20;6.17;;;3.95;;
32872;SDS011;19224;52.462;16.898;2023-07-16T03:03:51;11.53;;;4.28;;
32872;SDS011;19224;52.462;16.898;2023-07-16T03:06:21;6.03;;;4.62;;
32872;SDS011;19224;52.462;16.898;2023-07-16T03:08:51;8.60;;;4.42;;
32872;SDS011;19224;52.462;16.898;2023-07-16T03:11:24;6.10;;;3.92;;
32872;SDS011;19224;52.462;16.898;2023-07-16T03:13:56;7.45;;;4.40;;
32872;SDS011;19224;52.462;16.898;2023-07-16T03:16:35;5.92;;;4.58;;
32872;SDS011;19224;52.462;16.898;2023-07-16T03:19:04;7.12;;;4.40;;
32872;SDS011;19224;52.462;16.898;2023-07-16T03:21:34;7.83;;;4.37;;
32872;SDS011;19224;52.462;16.898;2023-07-16T03:24:05;5.90;;;4.65;;
32872;SDS011;19224;52.462;16.898;2023-07-16T03:26:37;11.85;;;4.47;;
32872;SDS011;19224;52.462;16.898;2023-07-16T03:29:08;6.78;;;4.65;;
32872;SDS011;19224;52.462;16.898;2023-07-16T03:31:43;5.45;;;4.28;;
32872;SDS011;19224;52.462;16.898;2023-07-16T03:34:12;9.05;;;4.35;;
32872;SDS011;19224;52.462;16.898;2023-07-16T03:36:48;5.47;;;4.20;;
32872;SDS011;19224;52.462;16.898;2023-07-16T03:39:20;6.97;;;4.80;;
32872;SDS011;19224;52.462;16.898;2023-07-16T03:41:55;5.67;;;4.42;;
32872;SDS011;19224;52.462;16.898;2023-07-16T03:44:25;5.20;;;4.03;;
32872;SDS011;19224;52.462;16.898;2023-07-16T03:46:57;6.35;;;4.62;;
32872;SDS011;19224;52.462;16.898;2023-07-16T03:49:29;7.85;;;4.50;;
32872;SDS011;19224;52.462;16.898;2023-07-16T03:51:59;5.55;;;4.00;;
32872;SDS011;19224;52.462;16.898;2023-07-16T03:54:36;5.15;;;4.40;;
32872;SDS011;19224;52.462;16.898;2023-07-16T03:57:08;9.30;;;4.80;;
32872;SDS011;19224;52.462;16.898;2023-07-16T03:59:38;8.45;;;4.15;;
32872;SDS011;19224;52.462;16.898;2023-07-16T04:02:12;4.72;;;4.25;;
32872;SDS011;19224;52.462;16.898;2023-07-16T04:04:44;8.03;;;4.53;;
32872;SDS011;19224;52.462;16.898;2023-07-16T04:07:14;7.42;;;3.90;;
32872;SDS011;19224;52.462;16.898;2023-07-16T04:09:45;6.60;;;4.10;;
32872;SDS011;19224;52.462;16.898;2023-07-16T04:12:16;8.95;;;4.20;;
32872;SDS011;19224;52.462;16.898;2023-07-16T04:14:47;5.25;;;4.60;;
32872;SDS011;19224;52.462;16.898;2023-07-16T04:17:19;7.83;;;3.87;;
32872;SDS011;19224;52.462;16.898;2023-07-16T04:19:50;5.08;;;4.45;;
32872;SDS011;19224;52.462;16.898;2023-07-16T04:22:22;6.03;;;4.15;;
32872;SDS011;19224;52.462;16.898;2023-07-16T04:24:53;6.72;;;4.40;;
32872;SDS011;19224;52.462;16.898;2023-07-16T04:27:27;8.53;;;4.60;;
32872;SDS011;19224;52.462;16.898;2023-07-16T04:30:05;6.72;;;4.03;;
32872;SDS011;19224;52.462;16.898;2023-07-16T04:32:39;7.70;;;4.12;;
32872;SDS011;19224;52.462;16.898;2023-07-16T04:35:16;9.70;;;4.03;;
32872;SDS011;19224;52.462;16.898;2023-07-16T04:37:47;4.35;;;3.67;;
32872;SDS011;19224;52.462;16.898;2023-07-16T04:40:19;6.90;;;4.05;;
32872;SDS011;19224;52.462;16.898;2023-07-16T04:42:49;4.90;;;3.83;;
32872;SDS011;19224;52.462;16.898;2023-07-16T04:45:19;7.50;;;3.60;;
32872;SDS011;19224;52.462;16.898;2023-07-16T04:47:50;6.20;;;3.80;;
32872;SDS011;19224;52.462;16.898;2023-07-16T04:50:20;16.35;;;3.80;;
32872;SDS011;19224;52.462;16.898;2023-07-16T04:52:52;9.90;;;3.67;;
32872;SDS011;19224;52.462;16.898;2023-07-16T04:55:23;6.53;;;3.33;;
32872;SDS011;19224;52.462;16.898;2023-07-16T04:57:53;4.40;;;3.25;;
32872;SDS011;19224;52.462;16.898;2023-07-16T05:00:26;4.10;;;3.20;;
32872;SDS011;19224;52.462;16.898;2023-07-16T05:02:56;7.62;;;3.52;;
32872;SDS011;19224;52.462;16.898;2023-07-16T05:05:27;4.92;;;3.40;;
32872;SDS011;19224;52.462;16.898;2023-07-16T05:07:57;12.68;;;3.30;;
32872;SDS011;19224;52.462;16.898;2023-07-16T05:10:30;6.53;;;2.90;;
32872;SDS011;19224;52.462;16.898;2023-07-16T05:13:02;6.12;;;3.05;;
32872;SDS011;19224;52.462;16.898;2023-07-16T05:15:35;6.42;;;3.02;;
32872;SDS011;19224;52.462;16.898;2023-07-16T05:18:06;3.45;;;2.87;;
32872;SDS011;19224;52.462;16.898;2023-07-16T05:20:36;4.35;;;2.83;;
32872;SDS011;19224;52.462;16.898;2023-07-16T05:23:09;3.33;;;2.70;;
32872;SDS011;19224;52.462;16.898;2023-07-16T05:25:44;3.10;;;2.70;;
32872;SDS011;19224;52.462;16.898;2023-07-16T05:28:18;7.87;;;2.37;;
32872;SDS011;19224;52.462;16.898;2023-07-16T05:31:01;5.60;;;2.45;;
32872;SDS011;19224;52.462;16.898;2023-07-16T05:33:32;3.02;;;2.40;;
32872;SDS011;19224;52.462;16.898;2023-07-16T05:36:03;9.18;;;2.83;;
32872;SDS011;19224;52.462;16.898;2023-07-16T05:38:36;4.60;;;2.70;;
32872;SDS011;19224;52.462;16.898;2023-07-16T05:41:07;5.95;;;2.33;;
32872;SDS011;19224;52.462;16.898;2023-07-16T05:43:39;12.03;;;2.50;;
32872;SDS011;19224;52.462;16.898;2023-07-16T05:46:14;4.80;;;2.77;;
32872;SDS011;19224;52.462;16.898;2023-07-16T05:48:44;7.37;;;2.77;;
32872;SDS011;19224;52.462;16.898;2023-07-16T05:51:19;6.50;;;2.80;;
32872;SDS011;19224;52.462;16.898;2023-07-16T05:53:49;2.55;;;2.20;;
32872;SDS011;19224;52.462;16.898;2023-07-16T05:56:23;6.72;;;2.08;;
32872;SDS011;19224;52.462;16.898;2023-07-16T05:58:53;4.53;;;2.60;;
32872;SDS011;19224;52.462;16.898;2023-07-16T06:01:31;3.70;;;2.55;;
32872;SDS011;19224;52.462;16.898;2023-07-16T06:03:58;4.97;;;2.20;;
32872;SDS011;19224;52.462;16.898;2023-07-16T06:06:28;3.15;;;2.20;;
32872;SDS011;19224;52.462;16.898;2023-07-16T06:09:00;3.60;;;2.17;;
32872;SDS011;19224;52.462;16.898;2023-07-16T06:11:34;3.35;;;1.92;;
32872;SDS011;19224;52.462;16.898;2023-07-16T06:14:04;2.58;;;2.10;;
32872;SDS011;19224;52.462;16.898;2023-07-16T06:16:43;2.30;;;2.10;;
32872;SDS011;19224;52.462;16.898;2023-07-16T06:19:14;5.20;;;2.08;;
32872;SDS011;19224;52.462;16.898;2023-07-16T06:21:47;2.83;;;1.92;;
32872;SDS011;19224;52.462;16.898;2023-07-16T06:24:18;2.52;;;2.00;;
32872;SDS011;19224;52.462;16.898;2023-07-16T06:26:51;2.50;;;2.00;;
32872;SDS011;19224;52.462;16.898;2023-07-16T06:29:24;4.28;;;2.20;;
32872;SDS011;19224;52.462;16.898;2023-07-16T06:31:55;3.80;;;1.90;;
32872;SDS011;19224;52.462;16.898;2023-07-16T06:34:27;2.15;;;1.90;;
32872;SDS011;19224;52.462;16.898;2023-07-16T06:37:01;3.80;;;1.80;;
32872;SDS011;19224;52.462;16.898;2023-07-16T06:39:32;3.20;;;1.80;;
32872;SDS011;19224;52.462;16.898;2023-07-16T06:42:09;3.98;;;1.55;;
32872;SDS011;19224;52.462;16.898;2023-07-16T06:44:39;1.90;;;1.70;;
32872;SDS011;19224;52.462;16.898;2023-07-16T06:47:11;3.90;;;1.70;;
32872;SDS011;19224;52.462;16.898;2023-07-16T06:49:41;4.28;;;1.72;;
32872;SDS011;19224;52.462;16.898;2023-07-16T06:52:18;3.40;;;1.85;;
32872;SDS011;19224;52.462;16.898;2023-07-16T06:54:55;1.92;;;1.67;;
32872;SDS011;19224;52.462;16.898;2023-07-16T06:57:27;1.92;;;1.70;;
32872;SDS011;19224;52.462;16.898;2023-07-16T06:59:57;4.10;;;1.72;;
32872;SDS011;19224;52.462;16.898;2023-07-16T07:02:33;5.40;;;1.90;;
32872;SDS011;19224;52.462;16.898;2023-07-16T07:05:02;2.52;;;1.62;;
32872;SDS011;19224;52.462;16.898;2023-07-16T07:07:35;3.20;;;1.40;;
32872;SDS011;19224;52.462;16.898;2023-07-16T07:10:05;2.30;;;1.60;;
32872;SDS011;19224;52.462;16.898;2023-07-16T07:12:38;4.37;;;1.70;;
32872;SDS011;19224;52.462;16.898;2023-07-16T07:15:09;2.37;;;1.60;;
32872;SDS011;19224;52.462;16.898;2023-07-16T07:17:42;4.33;;;1.57;;
32872;SDS011;19224;52.462;16.898;2023-07-16T07:20:18;2.70;;;1.42;;
32872;SDS011;19224;52.462;16.898;2023-07-16T07:22:56;7.17;;;1.80;;
32872;SDS011;19224;52.462;16.898;2023-07-16T07:25:30;2.50;;;1.65;;
32872;SDS011;19224;52.462;16.898;2023-07-16T07:28:06;6.10;;;1.60;;
32872;SDS011;19224;52.462;16.898;2023-07-16T07:30:42;2.45;;;1.25;;
32872;SDS011;19224;52.462;16.898;2023-07-16T07:33:18;4.22;;;1.80;;
32872;SDS011;19224;52.462;16.898;2023-07-16T07:35:55;1.65;;;1.47;;
32872;SDS011;19224;52.462;16.898;2023-07-16T07:38:26;2.42;;;1.67;;
32872;SDS011;19224;52.462;16.898;2023-07-16T07:40:58;3.75;;;1.75;;
32872;SDS011;19224;52.462;16.898;2023-07-16T07:43:32;2.42;;;1.67;;
32872;SDS011;19224;52.462;16.898;2023-07-16T07:46:04;2.37;;;1.75;;
32872;SDS011;19224;52.462;16.898;2023-07-16T07:48:36;1.70;;;1.50;;
32872;SDS011;19224;52.462;16.898;2023-07-16T07:51:10;2.22;;;1.52;;
32872;SDS011;19224;52.462;16.898;2023-07-16T07:53:42;1.65;;;1.55;;
32872;SDS011;19224;52.462;16.898;2023-07-16T07:56:17;2.87;;;1.75;;
32872;SDS011;19224;52.462;16.898;2023-07-16T07:58:47;1.87;;;1.70;;
32872;SDS011;19224;52.462;16.898;2023-07-16T08:01:18;1.70;;;1.40;;
32872;SDS011;19224;52.462;16.898;2023-07-16T08:03:48;2.05;;;1.60;;
32872;SDS011;19224;52.462;16.898;2023-07-16T08:06:21;2.70;;;1.70;;
32872;SDS011;19224;52.462;16.898;2023-07-16T08:08:54;3.20;;;1.80;;
32872;SDS011;19224;52.462;16.898;2023-07-16T08:11:29;1.55;;;1.45;;
32872;SDS011;19224;52.462;16.898;2023-07-16T08:14:00;2.80;;;1.67;;
32872;SDS011;19224;52.462;16.898;2023-07-16T08:16:31;2.08;;;1.67;;
32872;SDS011;19224;52.462;16.898;2023-07-16T08:19:01;2.90;;;1.40;;
32872;SDS011;19224;52.462;16.898;2023-07-16T08:21:33;2.12;;;1.20;;
32872;SDS011;19224;52.462;16.898;2023-07-16T08:24:08;1.57;;;1.47;;
32872;SDS011;19224;52.462;16.898;2023-07-16T08:26:38;2.92;;;1.60;;
32872;SDS011;19224;52.462;16.898;2023-07-16T08:29:12;1.65;;;1.42;;
32872;SDS011;19224;52.462;16.898;2023-07-16T08:31:42;1.77;;;1.37;;
32872;SDS011;19224;52.462;16.898;2023-07-16T08:34:18;2.92;;;1.57;;
32872;SDS011;19224;52.462;16.898;2023-07-16T08:36:46;1.67;;;1.57;;
32872;SDS011;19224;52.462;16.898;2023-07-16T08:39:22;3.83;;;1.50;;
32872;SDS011;19224;52.462;16.898;2023-07-16T08:41:53;1.72;;;1.35;;
32872;SDS011;19224;52.462;16.898;2023-07-16T08:44:27;2.25;;;1.60;;
32872;SDS011;19224;52.462;16.898;2023-07-16T08:46:59;4.92;;;1.27;;
32872;SDS011;19224;52.462;16.898;2023-07-16T08:49:30;2.75;;;1.70;;
32872;SDS011;19224;52.462;16.898;2023-07-16T08:52:02;2.08;;;1.40;;
32872;SDS011;19224;52.462;16.898;2023-07-16T08:54:39;2.02;;;1.30;;
32872;SDS011;19224;52.462;16.898;2023-07-16T08:57:10;1.60;;;1.47;;
32872;SDS011;19224;52.462;16.898;2023-07-16T08:59:49;2.25;;;1.50;;
32872;SDS011;19224;52.462;16.898;2023-07-16T09:02:20;2.70;;;1.62;;
32872;SDS011;19224;52.462;16.898;2023-07-16T09:04:51;2.95;;;1.32;;
32872;SDS011;19224;52.462;16.898;2023-07-16T09:07:25;3.35;;;1.80;;
32872;SDS011;19224;52.462;16.898;2023-07-16T09:09:58;2.55;;;1.60;;
32872;SDS011;19224;52.462;16.898;2023-07-16T09:12:33;1.90;;;1.65;;
32872;SDS011;19224;52.462;16.898;2023-07-16T09:15:04;3.90;;;1.60;;
32872;SDS011;19224;52.462;16.898;2023-07-16T09:17:39;4.17;;;3.02;;
32872;SDS011;19224;52.462;16.898;2023-07-16T09:20:11;2.08;;;1.70;;
32872;SDS011;19224;52.462;16.898;2023-07-16T09:22:43;2.17;;;1.67;;
32872;SDS011;19224;52.462;16.898;2023-07-16T09:25:16;2.02;;;1.75;;
32872;SDS011;19224;52.462;16.898;2023-07-16T09:27:52;4.62;;;2.05;;
32872;SDS011;19224;52.462;16.898;2023-07-16T09:30:24;2.42;;;1.95;;
32872;SDS011;19224;52.462;16.898;2023-07-16T09:33:03;3.33;;;1.95;;
32872;SDS011;19224;52.462;16.898;2023-07-16T09:35:54;5.30;;;1.95;;
32872;SDS011;19224;52.462;16.898;2023-07-16T09:38:26;3.10;;;1.87;;
32872;SDS011;19224;52.462;16.898;2023-07-16T09:40:58;2.00;;;1.65;;
32872;SDS011;19224;52.462;16.898;2023-07-16T09:43:30;9.28;;;5.78;;
32872;SDS011;19224;52.462;16.898;2023-07-16T09:46:01;5.42;;;3.20;;
32872;SDS011;19224;52.462;16.898;2023-07-16T09:48:34;2.17;;;1.92;;
32872;SDS011;19224;52.462;16.898;2023-07-16T09:51:07;3.20;;;1.98;;
32872;SDS011;19224;52.462;16.898;2023-07-16T09:53:42;4.80;;;2.02;;
32872;SDS011;19224;52.462;16.898;2023-07-16T09:56:15;1.80;;;1.70;;
32872;SDS011;19224;52.462;16.898;2023-07-16T09:58:50;3.85;;;1.60;;
32872;SDS011;19224;52.462;16.898;2023-07-16T10:01:22;3.98;;;1.62;;
32872;SDS011;19224;52.462;16.898;2023-07-16T10:04:12;1.95;;;1.77;;
32872;SDS011;19224;52.462;16.898;2023-07-16T10:06:55;2.12;;;1.62;;
32872;SDS011;19224;52.462;16.898;2023-07-16T10:09:32;3.25;;;1.80;;
32872;SDS011;19224;52.462;16.898;2023-07-16T10:14:52;2.12;;;1.60;;
32872;SDS011;19224;52.462;16.898;2023-07-16T10:17:26;3.60;;;1.60;;
32872;SDS011;19224;52.462;16.898;2023-07-16T10:20:00;1.87;;;1.60;;
32872;SDS011;19224;52.462;16.898;2023-07-16T10:22:46;1.80;;;1.62;;
32872;SDS011;19224;52.462;16.898;2023-07-16T10:25:23;1.52;;;1.42;;
32872;SDS011;19224;52.462;16.898;2023-07-16T10:28:00;2.62;;;1.60;;
32872;SDS011;19224;52.462;16.898;2023-07-16T10:30:32;1.77;;;1.50;;
32872;SDS011;19224;52.462;16.898;2023-07-16T10:33:13;2.17;;;1.50;;
32872;SDS011;19224;52.462;16.898;2023-07-16T10:35:45;3.20;;;1.70;;
32872;SDS011;19224;52.462;16.898;2023-07-16T10:38:16;3.65;;;1.65;;
32872;SDS011;19224;52.462;16.898;2023-07-16T10:40:56;1.95;;;1.50;;
32872;SDS011;19224;52.462;16.898;2023-07-16T10:43:24;2.25;;;1.67;;
32872;SDS011;19224;52.462;16.898;2023-07-16T10:45:59;3.42;;;1.90;;
32872;SDS011;19224;52.462;16.898;2023-07-16T10:48:35;3.72;;;1.62;;
32872;SDS011;19224;52.462;16.898;2023-07-16T10:51:05;2.17;;;1.75;;
32872;SDS011;19224;52.462;16.898;2023-07-16T10:53:40;1.92;;;1.52;;
32872;SDS011;19224;52.462;16.898;2023-07-16T10:56:10;2.98;;;1.80;;
32872;SDS011;19224;52.462;16.898;2023-07-16T10:58:43;2.30;;;1.62;;
32872;SDS011;19224;52.462;16.898;2023-07-16T11:01:16;1.57;;;1.47;;
32872;SDS011;19224;52.462;16.898;2023-07-16T11:03:46;4.60;;;1.80;;
32872;SDS011;19224;52.462;16.898;2023-07-16T11:06:20;1.37;;;1.27;;
32872;SDS011;19224;52.462;16.898;2023-07-16T11:08:53;1.52;;;1.42;;
32872;SDS011;19224;52.462;16.898;2023-07-16T11:11:30;1.62;;;1.42;;
32872;SDS011;19224;52.462;16.898;2023-07-16T11:14:05;5.00;;;1.77;;
32872;SDS011;19224;52.462;16.898;2023-07-16T11:16:38;1.72;;;1.50;;
32872;SDS011;19224;52.462;16.898;2023-07-16T11:19:08;2.62;;;1.40;;
32872;SDS011;19224;52.462;16.898;2023-07-16T11:21:45;1.82;;;1.27;;
32872;SDS011;19224;52.462;16.898;2023-07-16T11:24:16;1.82;;;1.62;;
32872;SDS011;19224;52.462;16.898;2023-07-16T11:26:53;2.22;;;1.45;;
32872;SDS011;19224;52.462;16.898;2023-07-16T11:29:26;3.10;;;1.60;;
32872;SDS011;19224;52.462;16.898;2023-07-16T11:32:05;1.60;;;1.40;;
32872;SDS011;19224;52.462;16.898;2023-07-16T11:34:51;2.08;;;1.60;;
32872;SDS011;19224;52.462;16.898;2023-07-16T11:37:23;1.62;;;1.52;;
32872;SDS011;19224;52.462;16.898;2023-07-16T11:40:03;1.77;;;1.30;;
32872;SDS011;19224;52.462;16.898;2023-07-16T11:42:39;2.50;;;1.70;;
32872;SDS011;19224;52.462;16.898;2023-07-16T11:45:20;1.90;;;1.70;;
32872;SDS011;19224;52.462;16.898;2023-07-16T11:47:55;3.70;;;2.17;;
32872;SDS011;19224;52.462;16.898;2023-07-16T11:50:30;1.77;;;1.50;;
32872;SDS011;19224;52.462;16.898;2023-07-16T11:53:05;4.40;;;1.75;;
32872;SDS011;19224;52.462;16.898;2023-07-16T11:55:34;11.60;;;3.58;;
32872;SDS011;19224;52.462;16.898;2023-07-16T11:58:07;2.55;;;2.02;;
32872;SDS011;19224;52.462;16.898;2023-07-16T12:00:37;1.85;;;1.52;;
32872;SDS011;19224;52.462;16.898;2023-07-16T12:03:08;5.37;;;1.67;;
32872;SDS011;19224;52.462;16.898;2023-07-16T12:05:41;1.95;;;1.37;;
32872;SDS011;19224;52.462;16.898;2023-07-16T12:08:12;1.70;;;1.60;;
32872;SDS011;19224;52.462;16.898;2023-07-16T12:10:45;2.58;;;1.77;;
32872;SDS011;19224;52.462;16.898;2023-07-16T12:13:16;1.65;;;1.50;;
32872;SDS011;19224;52.462;16.898;2023-07-16T12:15:51;1.60;;;1.35;;
32872;SDS011;19224;52.462;16.898;2023-07-16T12:18:25;3.98;;;2.00;;
32872;SDS011;19224;52.462;16.898;2023-07-16T12:20:58;2.62;;;1.65;;
32872;SDS011;19224;52.462;16.898;2023-07-16T12:23:28;3.75;;;1.50;;
32872;SDS011;19224;52.462;16.898;2023-07-16T12:26:00;3.42;;;2.02;;
32872;SDS011;19224;52.462;16.898;2023-07-16T12:28:31;2.08;;;1.40;;
32872;SDS011;19224;52.462;16.898;2023-07-16T12:31:04;2.00;;;1.40;;
32872;SDS011;19224;52.462;16.898;2023-07-16T12:33:34;2.10;;;1.50;;
32872;SDS011;19224;52.462;16.898;2023-07-16T12:36:09;1.67;;;1.57;;
32872;SDS011;19224;52.462;16.898;2023-07-16T12:38:41;2.02;;;1.60;;
32872;SDS011;19224;52.462;16.898;2023-07-16T12:41:16;1.87;;;1.40;;
32872;SDS011;19224;52.462;16.898;2023-07-16T12:43:46;2.55;;;1.62;;
32872;SDS011;19224;52.462;16.898;2023-07-16T12:46:17;1.55;;;1.40;;
32872;SDS011;19224;52.462;16.898;2023-07-16T12:48:50;1.65;;;1.50;;
32872;SDS011;19224;52.462;16.898;2023-07-16T12:51:20;1.60;;;1.50;;
32872;SDS011;19224;52.462;16.898;2023-07-16T12:53:51;3.90;;;1.70;;
32872;SDS011;19224;52.462;16.898;2023-07-16T12:56:25;3.02;;;1.65;;
32872;SDS011;19224;52.462;16.898;2023-07-16T12:58:59;2.02;;;1.50;;
32872;SDS011;19224;52.462;16.898;2023-07-16T13:01:31;2.17;;;1.50;;
32872;SDS011;19224;52.462;16.898;2023-07-16T13:04:01;1.67;;;1.50;;
32872;SDS011;19224;52.462;16.898;2023-07-16T13:06:31;2.52;;;1.40;;
32872;SDS011;19224;52.462;16.898;2023-07-16T13:09:09;2.15;;;1.95;;
32872;SDS011;19224;52.462;16.898;2023-07-16T13:11:39;2.10;;;1.35;;
32872;SDS011;19224;52.462;16.898;2023-07-16T13:14:14;2.33;;;1.52;;
32872;SDS011;19224;52.462;16.898;2023-07-16T13:16:47;4.53;;;1.60;;
32872;SDS011;19224;52.462;16.898;2023-07-16T13:19:22;2.85;;;1.50;;
32872;SDS011;19224;52.462;16.898;2023-07-16T13:21:52;3.58;;;1.45;;
32872;SDS011;19224;52.462;16.898;2023-07-16T13:24:24;2.95;;;1.55;;
32872;SDS011;19224;52.462;16.898;2023-07-16T13:26:59;1.90;;;1.50;;
32872;SDS011;19224;52.462;16.898;2023-07-16T13:29:30;2.02;;;1.47;;
32872;SDS011;19224;52.462;16.898;2023-07-16T13:32:05;2.08;;;1.42;;
32872;SDS011;19224;52.462;16.898;2023-07-16T13:34:37;4.67;;;1.50;;
32872;SDS011;19224;52.462;16.898;2023-07-16T13:37:09;2.33;;;1.45;;
32872;SDS011;19224;52.462;16.898;2023-07-16T13:39:41;1.77;;;1.35;;
32872;SDS011;19224;52.462;16.898;2023-07-16T13:42:12;1.95;;;1.67;;
32872;SDS011;19224;52.462;16.898;2023-07-16T13:44:44;9.90;;;1.70;;
32872;SDS011;19224;52.462;16.898;2023-07-16T13:47:14;2.47;;;1.50;;
32872;SDS011;19224;52.462;16.898;2023-07-16T13:49:47;2.70;;;1.60;;
32872;SDS011;19224;52.462;16.898;2023-07-16T13:52:20;2.60;;;1.60;;
32872;SDS011;19224;52.462;16.898;2023-07-16T13:54:52;1.87;;;1.40;;
32872;SDS011;19224;52.462;16.898;2023-07-16T13:57:32;4.42;;;1.60;;
32872;SDS011;19224;52.462;16.898;2023-07-16T14:00:00;4.62;;;1.80;;
32872;SDS011;19224;52.462;16.898;2023-07-16T14:02:32;2.52;;;1.90;;
32872;SDS011;19224;52.462;16.898;2023-07-16T14:05:08;1.80;;;1.62;;
32872;SDS011;19224;52.462;16.898;2023-07-16T14:07:41;2.22;;;1.55;;
32872;SDS011;19224;52.462;16.898;2023-07-16T14:10:11;2.62;;;2.37;;
32872;SDS011;19224;52.462;16.898;2023-07-16T14:12:44;1.55;;;1.45;;
32872;SDS011;19224;52.462;16.898;2023-07-16T14:15:24;4.60;;;1.52;;
32872;SDS011;19224;52.462;16.898;2023-07-16T14:17:50;1.85;;;1.40;;
32872;SDS011;19224;52.462;16.898;2023-07-16T14:20:20;2.60;;;1.60;;
32872;SDS011;19224;52.462;16.898;2023-07-16T14:22:51;2.65;;;1.70;;
32872;SDS011;19224;52.462;16.898;2023-07-16T14:25:21;2.20;;;1.80;;
32872;SDS011;19224;52.462;16.898;2023-07-16T14:27:54;3.05;;;1.90;;
32872;SDS011;19224;52.462;16.898;2023-07-16T14:30:26;1.95;;;1.72;;
32872;SDS011;19224;52.462;16.898;2023-07-16T14:32:58;2.27;;;1.70;;
32872;SDS011;19224;52.462;16.898;2023-07-16T14:35:33;3.30;;;1.75;;
32872;SDS011;19224;52.462;16.898;2023-07-16T14:38:03;1.75;;;1.50;;
32872;SDS011;19224;52.462;16.898;2023-07-16T14:40:37;1.85;;;1.52;;
32872;SDS011;19224;52.462;16.898;2023-07-16T14:43:09;2.70;;;1.60;;
32872;SDS011;19224;52.462;16.898;2023-07-16T14:45:39;1.95;;;1.75;;
32872;SDS011;19224;52.462;16.898;2023-07-16T14:48:11;7.05;;;1.75;;
32872;SDS011;19224;52.462;16.898;2023-07-16T14:50:42;2.45;;;1.50;;
32872;SDS011;19224;52.462;16.898;2023-07-16T14:53:12;2.55;;;1.52;;
32872;SDS011;19224;52.462;16.898;2023-07-16T14:55:48;3.52;;;1.57;;
32872;SDS011;19224;52.462;16.898;2023-07-16T14:58:23;2.47;;;1.70;;
32872;SDS011;19224;52.462;16.898;2023-07-16T15:00:53;1.80;;;1.70;;
32872;SDS011;19224;52.462;16.898;2023-07-16T15:03:25;2.20;;;1.40;;
32872;SDS011;19224;52.462;16.898;2023-07-16T15:05:56;1.67;;;1.57;;
32872;SDS011;19224;52.462;16.898;2023-07-16T15:08:30;2.37;;;1.70;;
32872;SDS011;19224;52.462;16.898;2023-07-16T15:11:05;3.08;;;1.67;;
32872;SDS011;19224;52.462;16.898;2023-07-16T15:13:37;2.47;;;1.60;;
32872;SDS011;19224;52.462;16.898;2023-07-16T15:16:09;2.62;;;1.60;;
32872;SDS011;19224;52.462;16.898;2023-07-16T15:18:41;1.80;;;1.70;;